Time;durP1;ratioP1;P1;durP2;ratioP2;P2;SDS_P1;SDS_P2;PMS_P1;PMS_P2;Temp;Humidity;BMP_temperature;BMP_pressure;BME280_temperature;BME280_humidity;BME280_pressure;Samples;Min_cycle;Max_cycle;Signal;HPM_P1;HPM_P2
2021/03/20 00:02:04;;;;;;;53.25;14.13;;;;;;;;;;8275217;28;20490;-69
2021/03/20 00:06:11;;;;;;;39.60;10.68;;;;;;;;;;8261142;28;20484;-70
2021/03/20 00:10:21;;;;;;;47.33;12.55;;;;;;;;;;8258575;28;20367;-69
2021/03/20 00:14:27;;;;;;;35.78;9.68;;;;;;;;;;8258349;28;20413;-68
2021/03/20 00:18:31;;;;;;;25.17;7.65;;;;;;;;;;8257682;28;20057;-68
2021/03/20 00:22:35;;;;;;;23.27;7.72;;;;;;;;;;8260242;28;20455;-68
2021/03/20 00:26:41;;;;;;;27.95;9.45;;;;;;;;;;8259042;28;20053;-68
2021/03/20 00:30:45;;;;;;;25.10;9.32;;;;;;;;;;8259098;28;20471;-68
2021/03/20 00:34:50;;;;;;;26.65;9.18;;;;;;;;;;8258775;28;20340;-68
2021/03/20 00:38:54;;;;;;;19.05;7.35;;;;;;;;;;8258852;28;20395;-69
2021/03/20 00:42:59;;;;;;;23.00;8.52;;;;;;;;;;8258736;28;20327;-68
2021/03/20 00:47:05;;;;;;;14.18;7.00;;;;;;;;;;8258644;28;20464;-69
2021/03/20 00:51:10;;;;;;;16.25;6.50;;;;;;;;;;8258420;28;20487;-69
2021/03/20 00:55:15;;;;;;;24.25;8.32;;;;;;;;;;8259416;28;20529;-69
2021/03/20 00:59:19;;;;;;;18.58;7.45;;;;;;;;;;8257809;28;20041;-69
2021/03/20 01:03:25;;;;;;;25.38;9.60;;;;;;;;;;8245805;28;20345;-69
2021/03/20 01:07:31;;;;;;;19.92;7.85;;;;;;;;;;8224973;28;20380;-68
2021/03/20 01:11:35;;;;;;;19.10;7.07;;;;;;;;;;8226377;28;20122;-69
2021/03/20 01:15:40;;;;;;;17.75;6.97;;;;;;;;;;8225590;28;20053;-68
2021/03/20 01:19:45;;;;;;;12.60;5.18;;;;;;;;;;8224798;28;20357;-68
2021/03/20 01:23:51;;;;;;;8.32;3.72;;;;;;;;;;8224810;28;20383;-68
2021/03/20 01:27:55;;;;;;;7.05;2.83;;;;;;;;;;8225598;28;20365;-68
2021/03/20 01:32:00;;;;;;;9.82;3.72;;;;;;;;;;8226443;28;20365;-68
2021/03/20 01:36:05;;;;;;;7.05;3.03;;;;;;;;;;8224473;28;20045;-68
2021/03/20 01:40:10;;;;;;;9.90;3.47;;;;;;;;;;8225277;28;20468;-68
2021/03/20 01:44:20;;;;;;;10.73;3.65;;;;;;;;;;8226412;28;20452;-68
2021/03/20 01:48:37;;;;;;;6.47;2.92;;;;;;;;;;8223489;28;20464;-69
2021/03/20 01:52:43;;;;;;;8.18;2.75;;;;;;;;;;8223827;28;20441;-69
2021/03/20 01:56:49;;;;;;;5.32;2.72;;;;;;;;;;8224149;28;20472;-68
2021/03/20 02:01:14;;;;;;;5.70;3.05;;;;;;;;;;8223813;28;20053;-68
2021/03/20 02:05:28;;;;;;;17.63;5.05;;;;;;;;;;8223000;28;20392;-68
2021/03/20 02:09:34;;;;;;;13.90;4.15;;;;;;;;;;8224640;28;20464;-68
2021/03/20 02:13:45;;;;;;;8.65;3.30;;;;;;;;;;8224815;28;20368;-69
2021/03/20 02:18:06;;;;;;;8.05;3.40;;;;;;;;;;8227638;28;20479;-69
2021/03/20 02:22:30;;;;;;;5.25;3.08;;;;;;;;;;8232435;28;20360;-68
2021/03/20 02:27:15;;;;;;;9.25;4.03;;;;;;;;;;8229036;28;20456;-68
2021/03/20 02:31:30;;;;;;;5.38;2.38;;;;;;;;;;8229310;28;20465;-68
2021/03/20 02:36:04;;;;;;;6.45;2.80;;;;;;;;;;8229349;28;20518;-70
2021/03/20 02:40:32;;;;;;;7.68;2.88;;;;;;;;;;8228749;28;20480;-68
2021/03/20 02:44:53;;;;;;;7.37;2.70;;;;;;;;;;8229594;28;20487;-69
2021/03/20 02:49:06;;;;;;;8.88;2.80;;;;;;;;;;8228089;28;20384;-67
2021/03/20 02:53:23;;;;;;;7.40;2.55;;;;;;;;;;8229486;28;20372;-69
2021/03/20 02:57:56;;;;;;;7.65;2.75;;;;;;;;;;8229602;28;20042;-68
2021/03/20 03:02:07;;;;;;;7.57;2.72;;;;;;;;;;8227161;28;20456;-68
2021/03/20 03:06:23;;;;;;;9.85;3.10;;;;;;;;;;8227463;28;20469;-69
2021/03/20 03:10:45;;;;;;;8.60;2.63;;;;;;;;;;8229830;28;20057;-67
2021/03/20 03:14:54;;;;;;;7.82;2.60;;;;;;;;;;8228339;28;20480;-68
2021/03/20 03:19:10;;;;;;;7.65;2.95;;;;;;;;;;8227811;28;20057;-69
2021/03/20 03:23:38;;;;;;;11.30;3.45;;;;;;;;;;8228113;28;20467;-67
2021/03/20 03:27:48;;;;;;;10.48;3.13;;;;;;;;;;8229244;28;20050;-68
2021/03/20 03:32:03;;;;;;;8.85;3.17;;;;;;;;;;8226722;28;20415;-68
2021/03/20 03:36:13;;;;;;;38.90;12.73;;;;;;;;;;8227303;28;20053;-68
2021/03/20 03:40:35;;;;;;;7.68;3.15;;;;;;;;;;8226767;28;20523;-67
2021/03/20 03:44:46;;;;;;;5.97;2.75;;;;;;;;;;8228416;28;20452;-67
2021/03/20 03:48:57;;;;;;;6.60;3.13;;;;;;;;;;8228302;28;20054;-67
2021/03/20 03:53:06;;;;;;;9.38;3.08;;;;;;;;;;8226701;28;20134;-67
2021/03/20 03:57:47;;;;;;;12.77;3.30;;;;;;;;;;8230078;28;20061;-67
2021/03/20 04:02:05;;;;;;;6.20;3.08;;;;;;;;;;8229505;28;20460;-67
2021/03/20 04:06:30;;;;;;;7.18;3.33;;;;;;;;;;8227037;28;20478;-67
2021/03/20 04:10:59;;;;;;;8.93;3.67;;;;;;;;;;8228951;28;20460;-67
2021/03/20 04:15:28;;;;;;;15.93;4.20;;;;;;;;;;8227839;28;20432;-67
2021/03/20 04:19:52;;;;;;;8.35;3.38;;;;;;;;;;8227507;28;20360;-67
2021/03/20 04:24:45;;;;;;;6.47;3.20;;;;;;;;;;8225805;28;20408;-68
2021/03/20 04:29:30;;;;;;;7.55;3.40;;;;;;;;;;8225986;28;20483;-67
2021/03/20 04:33:46;;;;;;;12.07;3.78;;;;;;;;;;8217202;28;20049;-67
2021/03/20 04:37:54;;;;;;;12.57;4.43;;;;;;;;;;8226724;28;20490;-67
2021/03/20 04:41:59;;;;;;;8.23;3.22;;;;;;;;;;8223660;28;20072;-67
2021/03/20 04:46:21;;;;;;;6.68;3.13;;;;;;;;;;8226082;28;20375;-66
2021/03/20 04:50:31;;;;;;;13.27;3.88;;;;;;;;;;8225370;28;20384;-67
2021/03/20 04:54:35;;;;;;;10.80;4.60;;;;;;;;;;8224651;28;20388;-66
2021/03/20 04:58:55;;;;;;;11.95;3.67;;;;;;;;;;8228486;28;20045;-67
2021/03/20 05:03:32;;;;;;;19.88;5.70;;;;;;;;;;8225645;28;20462;-67
2021/03/20 05:07:37;;;;;;;10.00;3.78;;;;;;;;;;8225054;28;20371;-67
2021/03/20 05:11:56;;;;;;;24.30;7.97;;;;;;;;;;8224659;28;20049;-68
2021/03/20 05:16:23;;;;;;;76.13;19.90;;;;;;;;;;8224930;28;20464;-67
2021/03/20 05:20:27;;;;;;;49.58;13.73;;;;;;;;;;8224792;28;20499;-67
2021/03/20 05:24:37;;;;;;;21.73;7.15;;;;;;;;;;8224854;28;20510;-67
2021/03/20 05:28:41;;;;;;;26.75;9.65;;;;;;;;;;8226124;28;20544;-66
2021/03/20 05:32:46;;;;;;;29.75;12.10;;;;;;;;;;8224848;28;20380;-67
2021/03/20 05:36:53;;;;;;;13.45;4.93;;;;;;;;;;8225320;28;20369;-68
2021/03/20 05:41:06;;;;;;;11.93;4.32;;;;;;;;;;8224704;28;20479;-67
2021/03/20 05:45:16;;;;;;;11.32;5.45;;;;;;;;;;8224586;28;20079;-66
2021/03/20 05:50:20;;;;;;;15.60;6.22;;;;;;;;;;8225411;28;20440;-67
2021/03/20 05:55:04;;;;;;;27.85;11.02;;;;;;;;;;8228840;28;20041;-67
2021/03/20 05:59:56;;;;;;;15.27;5.32;;;;;;;;;;8229707;28;20412;-67
2021/03/20 06:04:27;;;;;;;13.48;5.88;;;;;;;;;;8231225;28;20376;-67
2021/03/20 06:08:43;;;;;;;12.88;5.38;;;;;;;;;;8233119;28;20429;-67
2021/03/20 06:13:24;;;;;;;19.83;8.25;;;;;;;;;;8232159;28;20475;-67
2021/03/20 06:17:56;;;;;;;15.25;6.22;;;;;;;;;;8230508;28;20487;-68
2021/03/20 06:22:26;;;;;;;21.52;9.30;;;;;;;;;;8230967;28;20370;-68
2021/03/20 06:26:34;;;;;;;40.08;12.15;;;;;;;;;;8231800;28;20337;-68
2021/03/20 06:30:44;;;;;;;38.85;11.02;;;;;;;;;;8229620;28;20073;-67
2021/03/20 06:35:22;;;;;;;14.75;6.80;;;;;;;;;;8229660;28;20384;-68
2021/03/20 06:39:36;;;;;;;18.08;6.90;;;;;;;;;;8228864;28;20462;-68
2021/03/20 06:43:50;;;;;;;15.90;6.18;;;;;;;;;;8227624;28;20419;-69
2021/03/20 06:48:06;;;;;;;16.77;7.18;;;;;;;;;;8228726;28;20138;-68
2021/03/20 06:52:20;;;;;;;14.77;6.05;;;;;;;;;;8228654;28;20464;-70
2021/03/20 06:56:30;;;;;;;40.08;16.55;;;;;;;;;;8228080;28;20495;-69
2021/03/20 07:00:36;;;;;;;17.40;6.85;;;;;;;;;;8227836;28;20465;-69
2021/03/20 07:04:53;;;;;;;17.30;7.55;;;;;;;;;;8230606;28;20360;-70
2021/03/20 07:09:01;;;;;;;14.13;6.20;;;;;;;;;;8228170;28;20444;-69
2021/03/20 07:13:13;;;;;;;13.27;5.53;;;;;;;;;;8228239;28;20112;-71
2021/03/20 07:17:17;;;;;;;14.88;6.70;;;;;;;;;;8229508;28;20383;-71
2021/03/20 07:21:37;;;;;;;19.35;7.50;;;;;;;;;;8228471;28;20079;-69
2021/03/20 07:25:52;;;;;;;12.43;5.97;;;;;;;;;;8227322;28;20068;-69
2021/03/20 07:30:00;;;;;;;14.40;5.72;;;;;;;;;;8226872;28;20063;-69
2021/03/20 07:34:16;;;;;;;14.88;7.13;;;;;;;;;;8227238;28;20388;-69
2021/03/20 07:38:29;;;;;;;13.93;6.25;;;;;;;;;;8230311;28;20364;-69
2021/03/20 07:42:37;;;;;;;12.50;4.97;;;;;;;;;;8228713;28;20506;-69
2021/03/20 07:46:44;;;;;;;16.23;6.43;;;;;;;;;;8230241;28;20054;-69
2021/03/20 07:51:05;;;;;;;13.68;6.68;;;;;;;;;;8226419;28;20404;-70
2021/03/20 07:55:21;;;;;;;15.93;6.88;;;;;;;;;;8225520;28;20112;-69
2021/03/20 07:59:30;;;;;;;15.63;6.25;;;;;;;;;;8226594;28;20419;-70
2021/03/20 08:03:54;;;;;;;10.98;5.65;;;;;;;;;;8229783;28;20467;-69
2021/03/20 08:08:20;;;;;;;17.80;6.43;;;;;;;;;;8228182;28;20403;-69
2021/03/20 08:12:25;;;;;;;12.85;5.90;;;;;;;;;;8226298;28;20499;-69
2021/03/20 08:16:36;;;;;;;15.45;6.15;;;;;;;;;;8225902;28;20057;-69
2021/03/20 08:20:40;;;;;;;13.43;5.47;;;;;;;;;;8227735;28;20042;-69
2021/03/20 08:25:17;;;;;;;13.43;5.50;;;;;;;;;;8223285;28;20483;-70
2021/03/20 08:29:49;;;;;;;12.25;5.55;;;;;;;;;;8227960;28;20437;-70
2021/03/20 08:34:33;;;;;;;19.83;7.97;;;;;;;;;;8226551;28;20464;-69
2021/03/20 08:39:14;;;;;;;24.20;8.48;;;;;;;;;;8226563;28;20057;-70
2021/03/20 08:43:55;;;;;;;12.45;3.58;;;;;;;;;;8211051;28;20391;-70
2021/03/20 08:49:04;;;;;;;15.93;7.22;;;;;;;;;;8226528;28;20460;-70
2021/03/20 08:53:22;;;;;;;13.50;6.10;;;;;;;;;;8187813;28;20468;-69
2021/03/20 08:57:29;;;;;;;16.05;6.95;;;;;;;;;;8208652;28;20353;-69
2021/03/20 09:01:48;;;;;;;18.65;7.68;;;;;;;;;;8226483;28;20399;-69
2021/03/20 09:06:04;;;;;;;16.15;6.03;;;;;;;;;;8224325;28;20597;-69
2021/03/20 09:10:38;;;;;;;8.80;3.22;;;;;;;;;;8223993;28;20511;-69
2021/03/20 09:14:47;;;;;;;8.57;3.78;;;;;;;;;;8225076;28;20338;-71
2021/03/20 09:18:52;;;;;;;19.00;7.40;;;;;;;;;;8225290;28;20371;-71
2021/03/20 09:22:58;;;;;;;12.15;4.95;;;;;;;;;;8223033;28;20064;-71
2021/03/20 09:27:04;;;;;;;5.60;3.00;;;;;;;;;;8223923;28;20385;-71
2021/03/20 09:31:31;;;;;;;9.75;4.05;;;;;;;;;;8226910;28;20336;-71
2021/03/20 09:35:45;;;;;;;7.80;3.38;;;;;;;;;;8226794;28;20511;-71
2021/03/20 09:39:54;;;;;;;8.05;2.65;;;;;;;;;;8226507;28;20368;-70
2021/03/20 09:43:58;;;;;;;23.20;8.48;;;;;;;;;;8223503;28;20476;-71
2021/03/20 09:48:03;;;;;;;16.75;6.80;;;;;;;;;;8224949;28;20365;-71
2021/03/20 09:52:09;;;;;;;20.92;10.55;;;;;;;;;;8223166;28;20368;-71
2021/03/20 09:56:28;;;;;;;35.85;14.43;;;;;;;;;;8223093;28;20474;-71
2021/03/20 10:00:50;;;;;;;13.85;6.50;;;;;;;;;;8225989;28;20045;-73
2021/03/20 10:04:55;;;;;;;15.70;6.93;;;;;;;;;;8226963;28;20076;-69
2021/03/20 10:09:12;;;;;;;10.43;5.03;;;;;;;;;;8225234;28;20057;-69
2021/03/20 10:13:36;;;;;;;12.43;4.25;;;;;;;;;;8225107;28;20479;-70
2021/03/20 10:18:05;;;;;;;11.20;4.38;;;;;;;;;;8224623;28;20053;-70
2021/03/20 10:22:32;;;;;;;8.88;4.00;;;;;;;;;;8224084;28;20377;-72
2021/03/20 10:26:47;;;;;;;12.82;4.78;;;;;;;;;;8222374;28;20376;-69
2021/03/20 10:31:04;;;;;;;10.55;3.97;;;;;;;;;;8223807;28;20076;-70
2021/03/20 10:35:09;;;;;;;5.68;3.03;;;;;;;;;;8224693;28;20487;-70
2021/03/20 10:39:34;;;;;;;10.80;4.07;;;;;;;;;;8227901;28;20482;-69
2021/03/20 10:43:47;;;;;;;9.63;2.70;;;;;;;;;;8228364;28;20464;-69
2021/03/20 10:48:04;;;;;;;18.40;8.43;;;;;;;;;;8229318;28;20456;-72
2021/03/20 10:52:34;;;;;;;18.98;7.40;;;;;;;;;;8227811;28;20384;-70
2021/03/20 10:56:41;;;;;;;24.88;8.13;;;;;;;;;;8227661;28;20488;-70
2021/03/20 11:00:49;;;;;;;11.60;5.25;;;;;;;;;;8230479;28;20045;-70
2021/03/20 11:05:13;;;;;;;16.55;6.97;;;;;;;;;;8230112;28;20597;-70
2021/03/20 11:09:29;;;;;;;6.55;3.47;;;;;;;;;;8229940;28;20383;-70
2021/03/20 11:13:38;;;;;;;6.60;3.85;;;;;;;;;;8229323;28;20388;-70
2021/03/20 11:17:42;;;;;;;5.63;3.20;;;;;;;;;;8229492;28;20113;-70
2021/03/20 11:21:54;;;;;;;8.25;3.42;;;;;;;;;;8227339;28;20629;-70
2021/03/20 11:26:22;;;;;;;22.42;10.07;;;;;;;;;;8228340;28;20470;-70
2021/03/20 11:30:39;;;;;;;10.43;4.15;;;;;;;;;;8227567;28;20483;-71
2021/03/20 11:34:44;;;;;;;9.77;3.80;;;;;;;;;;8228604;28;20340;-70
2021/03/20 11:38:47;;;;;;;13.65;7.95;;;;;;;;;;8225412;28;20454;-72
2021/03/20 11:42:55;;;;;;;17.15;7.80;;;;;;;;;;8224549;28;20681;-72
2021/03/20 11:47:03;;;;;;;19.58;6.03;;;;;;;;;;8226746;28;20403;-70
2021/03/20 11:51:21;;;;;;;11.98;4.97;;;;;;;;;;8227757;28;20076;-70
2021/03/20 11:55:37;;;;;;;14.32;5.40;;;;;;;;;;8224889;28;20392;-70
2021/03/20 11:59:45;;;;;;;20.60;6.78;;;;;;;;;;8226698;28;20534;-70
2021/03/20 12:03:50;;;;;;;20.83;8.13;;;;;;;;;;8229296;28;20353;-70
2021/03/20 12:08:41;;;;;;;13.23;5.80;;;;;;;;;;8226096;28;20974;-70
2021/03/20 12:12:51;;;;;;;14.13;4.88;;;;;;;;;;8227048;28;20383;-70
2021/03/20 12:17:10;;;;;;;22.10;8.35;;;;;;;;;;8226795;28;20057;-71
2021/03/20 12:21:15;;;;;;;17.08;5.65;;;;;;;;;;8226496;28;20460;-71
2021/03/20 12:25:30;;;;;;;9.98;4.60;;;;;;;;;;8228006;28;20369;-70
2021/03/20 12:29:39;;;;;;;39.00;10.98;;;;;;;;;;8227428;28;20119;-71
2021/03/20 12:33:52;;;;;;;10.02;3.60;;;;;;;;;;8224794;28;20364;-70
2021/03/20 12:38:02;;;;;;;17.90;6.03;;;;;;;;;;8227170;28;20376;-70
2021/03/20 12:42:07;;;;;;;28.33;9.25;;;;;;;;;;8224331;28;20424;-71
2021/03/20 12:46:11;;;;;;;19.13;8.02;;;;;;;;;;8226273;28;20459;-69
2021/03/20 12:50:17;;;;;;;6.38;3.33;;;;;;;;;;8224427;28;20053;-71
2021/03/20 12:54:31;;;;;;;6.32;3.60;;;;;;;;;;8226278;28;20472;-70
2021/03/20 12:58:38;;;;;;;11.85;4.90;;;;;;;;;;8225701;28;20092;-69
2021/03/20 13:02:44;;;;;;;9.27;3.25;;;;;;;;;;8224240;28;20372;-70
2021/03/20 13:06:49;;;;;;;22.05;6.75;;;;;;;;;;8225968;28;20340;-71
2021/03/20 13:10:53;;;;;;;19.77;6.43;;;;;;;;;;8223843;28;20049;-70
2021/03/20 13:14:57;;;;;;;24.95;7.13;;;;;;;;;;8226592;28;20341;-72
2021/03/20 13:19:03;;;;;;;11.07;3.13;;;;;;;;;;8226483;28;20506;-71
2021/03/20 13:23:08;;;;;;;9.93;4.28;;;;;;;;;;8225949;28;20377;-70
2021/03/20 13:27:13;;;;;;;10.98;4.00;;;;;;;;;;8226483;28;20396;-69
2021/03/20 13:31:18;;;;;;;18.25;7.38;;;;;;;;;;8226933;28;20068;-71
2021/03/20 13:35:26;;;;;;;20.67;8.35;;;;;;;;;;8224155;28;20334;-70
2021/03/20 13:39:31;;;;;;;9.48;3.72;;;;;;;;;;8223057;28;20467;-70
2021/03/20 13:43:36;;;;;;;20.38;7.20;;;;;;;;;;8223731;28;20100;-70
2021/03/20 13:47:40;;;;;;;12.23;4.38;;;;;;;;;;8222893;28;20388;-70
2021/03/20 13:51:45;;;;;;;29.67;8.95;;;;;;;;;;8225009;28;20452;-69
2021/03/20 13:55:54;;;;;;;16.25;6.00;;;;;;;;;;8224805;28;20356;-70
2021/03/20 13:59:59;;;;;;;18.75;7.38;;;;;;;;;;8224546;28;20045;-70
2021/03/20 14:04:05;;;;;;;11.85;4.57;;;;;;;;;;8224960;28;20369;-69
2021/03/20 14:08:10;;;;;;;13.45;6.25;;;;;;;;;;8224376;28;20340;-70
2021/03/20 14:12:15;;;;;;;20.30;7.47;;;;;;;;;;8223143;28;20380;-71
2021/03/20 14:16:19;;;;;;;28.23;8.55;;;;;;;;;;8231340;28;20053;-70
2021/03/20 14:20:32;;;;;;;12.73;3.90;;;;;;;;;;8228581;28;20357;-71
2021/03/20 14:24:38;;;;;;;23.08;6.75;;;;;;;;;;8230602;28;20511;-69
2021/03/20 14:28:44;;;;;;;10.83;4.90;;;;;;;;;;8228533;28;20368;-70
2021/03/20 14:32:50;;;;;;;13.13;4.93;;;;;;;;;;8230497;28;20468;-72
2021/03/20 14:36:54;;;;;;;10.88;4.95;;;;;;;;;;8229495;28;20353;-71
2021/03/20 14:40:58;;;;;;;18.17;6.97;;;;;;;;;;8229472;28;20411;-71
2021/03/20 14:45:04;;;;;;;14.40;8.23;;;;;;;;;;8228343;28;20384;-71
2021/03/20 14:49:08;;;;;;;20.95;9.13;;;;;;;;;;8230798;28;20460;-71
2021/03/20 14:53:13;;;;;;;18.35;7.03;;;;;;;;;;8229367;28;20057;-69
2021/03/20 14:57:18;;;;;;;17.35;7.97;;;;;;;;;;8230327;28;20468;-70
2021/03/20 15:01:21;;;;;;;11.75;6.13;;;;;;;;;;8227727;28;20518;-70
2021/03/20 15:05:26;;;;;;;22.83;9.52;;;;;;;;;;8229440;28;20366;-70
2021/03/20 15:09:31;;;;;;;8.07;3.63;;;;;;;;;;8230266;28;20571;-70
2021/03/20 15:13:36;;;;;;;7.03;4.18;;;;;;;;;;8228051;28;20388;-69
2021/03/20 15:17:41;;;;;;;22.55;7.72;;;;;;;;;;8228606;28;20403;-69
2021/03/20 15:21:49;;;;;;;12.35;5.35;;;;;;;;;;8228477;28;20463;-69
2021/03/20 15:25:55;;;;;;;8.27;4.13;;;;;;;;;;8227207;28;20491;-70
2021/03/20 15:29:59;;;;;;;28.35;14.65;;;;;;;;;;8228710;28;20046;-69
2021/03/20 15:34:04;;;;;;;24.08;12.40;;;;;;;;;;8227919;28;20353;-69
2021/03/20 15:38:10;;;;;;;35.20;15.73;;;;;;;;;;8226814;28;20368;-69
2021/03/20 15:42:14;;;;;;;38.38;20.02;;;;;;;;;;8225672;28;20388;-70
2021/03/20 15:46:21;;;;;;;14.15;5.20;;;;;;;;;;8230048;28;20458;-70
2021/03/20 15:50:33;;;;;;;16.60;7.85;;;;;;;;;;8229303;28;20472;-70
2021/03/20 15:54:38;;;;;;;30.23;12.05;;;;;;;;;;8229896;28;20464;-70
2021/03/20 15:58:44;;;;;;;9.38;4.47;;;;;;;;;;8225397;28;20371;-69
2021/03/20 16:02:48;;;;;;;26.33;11.43;;;;;;;;;;8228093;28;20045;-69
2021/03/20 16:06:54;;;;;;;17.33;6.68;;;;;;;;;;8226129;28;20475;-69
2021/03/20 16:11:00;;;;;;;27.38;13.55;;;;;;;;;;8227237;28;20479;-72
2021/03/20 16:15:06;;;;;;;25.65;10.68;;;;;;;;;;8227153;28;20444;-72
2021/03/20 16:19:11;;;;;;;26.05;12.43;;;;;;;;;;8225637;28;20368;-70
2021/03/20 16:23:22;;;;;;;16.30;7.65;;;;;;;;;;8209114;28;20104;-71
2021/03/20 16:27:27;;;;;;;64.90;21.77;;;;;;;;;;8226513;28;20476;-71
2021/03/20 16:31:32;;;;;;;23.33;8.30;;;;;;;;;;8226755;28;20480;-70
2021/03/20 16:35:36;;;;;;;235.02;80.53;;;;;;;;;;8226837;28;20368;-71
2021/03/20 16:39:41;;;;;;;392.15;132.15;;;;;;;;;;8223971;28;20061;-71
2021/03/20 16:44:06;;;;;;;296.77;94.47;;;;;;;;;;8225452;28;20383;-69
2021/03/20 16:48:13;;;;;;;304.48;95.72;;;;;;;;;;8226122;28;20057;-70
2021/03/20 16:52:18;;;;;;;575.63;232.17;;;;;;;;;;8226247;28;20351;-69
2021/03/20 16:56:23;;;;;;;361.27;132.02;;;;;;;;;;8225757;28;20854;-69
2021/03/20 17:00:31;;;;;;;435.15;177.48;;;;;;;;;;8225577;28;20375;-71
2021/03/20 17:04:41;;;;;;;586.03;266.38;;;;;;;;;;8225598;28;20409;-69
2021/03/20 17:08:49;;;;;;;375.15;153.45;;;;;;;;;;8226214;28;20444;-69
2021/03/20 17:12:55;;;;;;;272.45;108.97;;;;;;;;;;8226631;28;20468;-69
2021/03/20 17:17:00;;;;;;;171.95;67.32;;;;;;;;;;8225886;28;20452;-68
2021/03/20 17:21:09;;;;;;;135.50;44.45;;;;;;;;;;8223176;28;20383;-68
2021/03/20 17:25:14;;;;;;;124.60;32.47;;;;;;;;;;8225869;28;20527;-69
2021/03/20 17:29:23;;;;;;;148.65;34.75;;;;;;;;;;8225402;28;20075;-68
2021/03/20 17:33:28;;;;;;;158.93;38.83;;;;;;;;;;8223142;28;20380;-68
2021/03/20 17:37:32;;;;;;;139.25;36.55;;;;;;;;;;8226731;28;20049;-69
2021/03/20 17:41:38;;;;;;;127.15;34.85;;;;;;;;;;8225476;28;20498;-68
2021/03/20 17:45:43;;;;;;;117.70;32.63;;;;;;;;;;8225883;28;20445;-67
2021/03/20 17:49:47;;;;;;;73.57;22.75;;;;;;;;;;8234805;28;20472;-68
2021/03/20 17:53:51;;;;;;;35.70;11.15;;;;;;;;;;8235148;28;20468;-69
2021/03/20 17:57:54;;;;;;;57.40;18.10;;;;;;;;;;8236857;28;20555;-67
2021/03/20 18:02:00;;;;;;;26.20;9.50;;;;;;;;;;8235898;28;20480;-67
2021/03/20 18:06:06;;;;;;;22.58;6.45;;;;;;;;;;8233568;28;20480;-68
2021/03/20 18:10:20;;;;;;;12.02;5.53;;;;;;;;;;8235290;28;20427;-67
2021/03/20 18:14:25;;;;;;;32.15;14.35;;;;;;;;;;8235437;28;20461;-67
2021/03/20 18:18:36;;;;;;;105.40;31.05;;;;;;;;;;8237423;28;20368;-66
2021/03/20 18:22:40;;;;;;;101.65;31.67;;;;;;;;;;8235642;28;20455;-67
2021/03/20 18:26:44;;;;;;;59.65;19.92;;;;;;;;;;8235630;28;20368;-67
2021/03/20 18:30:49;;;;;;;28.23;12.25;;;;;;;;;;8235497;28;20483;-66
2021/03/20 18:34:54;;;;;;;39.75;15.88;;;;;;;;;;8233726;28;20376;-68
2021/03/20 18:38:59;;;;;;;48.50;17.90;;;;;;;;;;8234716;28;20379;-68
2021/03/20 18:43:03;;;;;;;49.90;15.98;;;;;;;;;;8236181;28;20049;-67
2021/03/20 18:47:08;;;;;;;18.80;8.60;;;;;;;;;;8235108;28;20061;-67
2021/03/20 18:51:13;;;;;;;225.73;60.58;;;;;;;;;;8235219;28;20471;-67
2021/03/20 18:55:18;;;;;;;95.25;29.00;;;;;;;;;;8232644;28;20467;-67
2021/03/20 18:59:24;;;;;;;90.53;29.17;;;;;;;;;;8230671;28;20071;-66
2021/03/20 19:03:31;;;;;;;67.50;20.40;;;;;;;;;;8230132;28;20067;-67
2021/03/20 19:07:36;;;;;;;62.75;19.80;;;;;;;;;;8230523;28;20476;-68
2021/03/20 19:11:39;;;;;;;82.72;26.42;;;;;;;;;;8230758;28;20480;-66
2021/03/20 19:15:44;;;;;;;48.40;16.52;;;;;;;;;;8230926;28;20341;-66
2021/03/20 19:19:49;;;;;;;75.22;23.55;;;;;;;;;;8228837;28;20068;-67
2021/03/20 19:23:54;;;;;;;29.40;11.48;;;;;;;;;;8227524;28;20483;-66
2021/03/20 19:27:59;;;;;;;70.93;27.77;;;;;;;;;;8228622;28;20471;-66
2021/03/20 19:32:04;;;;;;;73.53;27.50;;;;;;;;;;8228961;28;20499;-66
2021/03/20 19:36:12;;;;;;;40.80;14.35;;;;;;;;;;8230241;28;20459;-68
2021/03/20 19:40:23;;;;;;;41.03;12.65;;;;;;;;;;8229086;28;20476;-66
2021/03/20 19:44:29;;;;;;;50.67;18.15;;;;;;;;;;8227487;28;20499;-65
2021/03/20 19:48:35;;;;;;;89.72;29.10;;;;;;;;;;8227759;28;20595;-66
2021/03/20 19:52:39;;;;;;;121.03;30.95;;;;;;;;;;8227024;28;20351;-66
2021/03/20 19:56:44;;;;;;;143.65;34.47;;;;;;;;;;8228630;28;20372;-66
2021/03/20 20:00:51;;;;;;;144.05;38.20;;;;;;;;;;8229597;28;20053;-66
2021/03/20 20:04:59;;;;;;;127.57;32.65;;;;;;;;;;8229381;28;20356;-67
2021/03/20 20:09:04;;;;;;;79.47;23.52;;;;;;;;;;8227940;28;20115;-67
2021/03/20 20:13:08;;;;;;;106.20;27.83;;;;;;;;;;8226088;28;20482;-66
2021/03/20 20:17:14;;;;;;;96.88;27.33;;;;;;;;;;8208762;28;20356;-66
2021/03/20 20:21:22;;;;;;;98.13;25.48;;;;;;;;;;8227052;28;20057;-66
2021/03/20 20:25:44;;;;;;;118.53;28.13;;;;;;;;;;8227278;28;20460;-66
2021/03/20 20:29:49;;;;;;;63.80;24.77;;;;;;;;;;8225944;28;20345;-66
2021/03/20 20:33:54;;;;;;;119.20;29.52;;;;;;;;;;8226298;28;20075;-67
2021/03/20 20:37:58;;;;;;;122.93;28.00;;;;;;;;;;8226867;28;20408;-65
2021/03/20 20:42:06;;;;;;;144.32;29.20;;;;;;;;;;8225699;28;20365;-66
2021/03/20 20:46:21;;;;;;;124.75;29.25;;;;;;;;;;8229030;28;20502;-66
2021/03/20 20:50:26;;;;;;;172.85;32.53;;;;;;;;;;8209867;28;20383;-66
2021/03/20 20:54:32;;;;;;;156.07;30.05;;;;;;;;;;8225654;28;20488;-67
2021/03/20 20:58:37;;;;;;;83.72;23.85;;;;;;;;;;8225588;28;20471;-67
2021/03/20 21:02:42;;;;;;;93.93;23.58;;;;;;;;;;8225608;28;20452;-66
2021/03/20 21:06:47;;;;;;;140.90;31.40;;;;;;;;;;8225195;28;20333;-67
2021/03/20 21:10:53;;;;;;;112.07;29.13;;;;;;;;;;8225812;28;20072;-65
2021/03/20 21:14:57;;;;;;;111.68;32.15;;;;;;;;;;8228405;28;20338;-67
2021/03/20 21:19:02;;;;;;;116.13;31.60;;;;;;;;;;8225227;28;20464;-67
2021/03/20 21:23:07;;;;;;;137.80;34.00;;;;;;;;;;8224103;28;20391;-66
2021/03/20 21:27:11;;;;;;;114.68;33.08;;;;;;;;;;8223883;28;20348;-69
2021/03/20 21:31:16;;;;;;;105.28;32.88;;;;;;;;;;8227616;28;20388;-65
2021/03/20 21:35:21;;;;;;;108.47;28.90;;;;;;;;;;8224968;28;20404;-66
2021/03/20 21:39:26;;;;;;;87.95;27.95;;;;;;;;;;8225288;28;20490;-66
2021/03/20 21:43:31;;;;;;;95.43;28.05;;;;;;;;;;8226044;28;20452;-66
2021/03/20 21:47:36;;;;;;;102.18;28.48;;;;;;;;;;8227650;28;20357;-66
2021/03/20 21:51:42;;;;;;;92.95;29.17;;;;;;;;;;8224085;28;20440;-65
2021/03/20 21:55:47;;;;;;;80.45;25.58;;;;;;;;;;8225022;28;20468;-65
2021/03/20 21:59:51;;;;;;;81.78;26.58;;;;;;;;;;8227177;28;20408;-66
2021/03/20 22:03:56;;;;;;;89.55;25.45;;;;;;;;;;8221925;28;20068;-66
2021/03/20 22:08:01;;;;;;;81.28;24.50;;;;;;;;;;8225643;28;20448;-66
2021/03/20 22:12:06;;;;;;;78.75;27.02;;;;;;;;;;8225579;28;20453;-65
2021/03/20 22:16:10;;;;;;;92.25;28.27;;;;;;;;;;8224886;28;20488;-65
2021/03/20 22:20:37;;;;;;;87.95;26.48;;;;;;;;;;8222900;28;20071;-66
2021/03/20 22:24:41;;;;;;;81.68;28.00;;;;;;;;;;8222969;28;20337;-68
2021/03/20 22:28:46;;;;;;;85.25;27.73;;;;;;;;;;8225588;28;20483;-65
2021/03/20 22:32:52;;;;;;;85.82;26.60;;;;;;;;;;8224581;28;20385;-66
2021/03/20 22:36:57;;;;;;;91.78;28.95;;;;;;;;;;8231467;28;20486;-65
2021/03/20 22:41:03;;;;;;;82.57;26.45;;;;;;;;;;8230689;28;20372;-67
2021/03/20 22:45:08;;;;;;;77.80;24.88;;;;;;;;;;8230213;28;20075;-66
2021/03/20 22:49:13;;;;;;;78.95;23.67;;;;;;;;;;8230990;28;20357;-68
2021/03/20 22:53:18;;;;;;;107.25;27.90;;;;;;;;;;8230457;28;20456;-65
2021/03/20 22:57:37;;;;;;;85.22;27.52;;;;;;;;;;8229350;28;20349;-67
2021/03/20 23:01:42;;;;;;;71.82;23.38;;;;;;;;;;8229042;28;20495;-68
2021/03/20 23:05:49;;;;;;;84.88;24.05;;;;;;;;;;8228952;28;20494;-65
2021/03/20 23:09:52;;;;;;;73.68;25.17;;;;;;;;;;8228960;28;20382;-67
2021/03/20 23:13:57;;;;;;;75.97;24.05;;;;;;;;;;8229372;28;20451;-66
2021/03/20 23:18:03;;;;;;;81.18;24.65;;;;;;;;;;8229543;28;20494;-66
2021/03/20 23:22:08;;;;;;;83.60;24.75;;;;;;;;;;8229274;28;20369;-66
2021/03/20 23:26:13;;;;;;;80.10;27.55;;;;;;;;;;8228764;28;20375;-65
2021/03/20 23:30:30;;;;;;;84.00;26.58;;;;;;;;;;8227872;28;20413;-66
2021/03/20 23:34:34;;;;;;;100.88;29.48;;;;;;;;;;8228923;28;20487;-67
2021/03/20 23:38:39;;;;;;;86.82;25.42;;;;;;;;;;8227351;28;20371;-64
2021/03/20 23:42:46;;;;;;;87.75;29.27;;;;;;;;;;8227479;28;20502;-66
2021/03/20 23:46:53;;;;;;;99.38;29.20;;;;;;;;;;8227615;28;20080;-67
2021/03/20 23:50:59;;;;;;;;;;;;;;;;;;8229847;28;20444;-66
2021/03/20 23:55:05;;;;;;;78.82;25.95;;;;;;;;;;8228397;28;20255;-66
2021/03/20 23:59:10;;;;;;;93.90;26.75;;;;;;;;;;8225778;28;20468;-65
